Time;durP1;ratioP1;P1;durP2;ratioP2;P2;SDS_P1;SDS_P2;PMS_P1;PMS_P2;Temp;Humidity;BMP_temperature;BMP_pressure;BME280_temperature;BME280_humidity;BME280_pressure;Samples;Min_cycle;Max_cycle;Signal;HPM_P1;HPM_P2
2022/09/28 00:01:12;;;;;;;2.60;0.70;;;;;;;6.36;100.00;94686.81;4997060;28;20034;-76
2022/09/28 00:03:38;;;;;;;4.40;1.57;;;;;;;6.38;100.00;94680.44;5016232;28;20042;-76
2022/09/28 00:06:07;;;;;;;1.70;0.57;;;;;;;6.42;100.00;94680.09;5011789;28;20025;-76
2022/09/28 00:08:34;;;;;;;1.00;0.40;;;;;;;6.42;100.00;94670.47;5015659;28;20042;-77
2022/09/28 00:11:01;;;;;;;1.87;0.60;;;;;;;6.41;100.00;94657.59;5041054;28;20044;-76
2022/09/28 00:13:28;;;;;;;2.27;0.63;;;;;;;6.40;100.00;94656.75;5016365;28;20034;-76
2022/09/28 00:16:05;;;;;;;1.20;0.60;;;;;;;6.41;100.00;94653.19;5007495;28;20394;-77
2022/09/28 00:18:32;;;;;;;2.87;0.63;;;;;;;6.37;100.00;94642.28;5005577;28;20049;-77
2022/09/28 00:21:05;;;;;;;1.33;0.50;;;;;;;6.33;100.00;94638.34;5035674;28;20033;-76
2022/09/28 00:23:31;;;;;;;;;;;;;;;6.29;100.00;94642.28;5014963;28;20041;-76
2022/09/28 00:26:01;;;;;;;3.00;0.70;;;;;;;6.38;100.00;94648.28;5020511;28;19913;-75
2022/09/28 00:28:27;;;;;;;1.60;0.60;;;;;;;6.24;100.00;94630.78;5007286;28;20069;-75
2022/09/28 00:30:57;;;;;;;0.77;0.30;;;;;;;6.29;100.00;94624.03;5049775;28;20095;-76
2022/09/28 00:33:23;;;;;;;1.93;0.50;;;;;;;6.24;100.00;94618.53;5022914;28;20021;-74
2022/09/28 00:35:57;;;;;;;0.57;0.40;;;;;;;6.24;100.00;94610.69;5002777;28;20038;-76
2022/09/28 00:38:25;;;;;;;2.20;0.50;;;;;;;6.18;100.00;94616.59;5023223;28;20910;-75
2022/09/28 00:40:51;;;;;;;1.27;0.50;;;;;;;6.19;100.00;94605.16;5004366;28;20116;-76
2022/09/28 00:43:18;;;;;;;2.10;0.67;;;;;;;6.22;100.00;94601.41;5007255;28;20026;-76
2022/09/28 00:45:44;;;;;;;0.90;0.50;;;;;;;6.22;100.00;94591.78;5004486;28;20049;-76
2022/09/28 00:48:10;;;;;;;3.30;0.63;;;;;;;6.23;100.00;94585.56;5016313;28;20030;-76
2022/09/28 00:50:37;;;;;;;1.90;0.40;;;;;;;6.28;100.00;94579.84;5019584;28;20029;-75
2022/09/28 00:53:09;;;;;;;1.27;0.80;;;;;;;6.31;100.00;94575.06;4997856;28;20037;-76
2022/09/28 00:55:41;;;;;;;1.37;0.50;;;;;;;6.34;100.00;94566.09;5019354;28;20033;-76
2022/09/28 00:58:12;;;;;;;2.00;0.70;;;;;;;6.37;100.00;94563.94;5013689;28;20030;-76
2022/09/28 01:00:41;;;;;;;2.00;0.77;;;;;;;6.44;100.00;94552.78;4997065;28;20138;-75
2022/09/28 01:03:09;;;;;;;1.63;0.63;;;;;;;6.49;100.00;94550.47;5006135;28;20080;-76
2022/09/28 01:05:38;;;;;;;0.67;0.40;;;;;;;6.50;100.00;94536.41;5011109;28;20534;-75
2022/09/28 01:08:06;;;;;;;0.87;0.50;;;;;;;6.55;100.00;94532.28;5014874;28;20043;-76
2022/09/28 01:10:32;;;;;;;1.27;0.90;;;;;;;6.60;100.00;94524.72;5013922;28;20076;-76
2022/09/28 01:12:58;;;;;;;0.60;0.50;;;;;;;6.68;100.00;94529.09;5031964;28;20132;-76
2022/09/28 01:15:27;;;;;;;0.83;0.60;;;;;;;6.71;100.00;94522.72;5008820;28;20029;-76
2022/09/28 01:18:17;;;;;;;1.23;0.53;;;;;;;6.75;100.00;94514.31;5020950;28;20569;-76
2022/09/28 01:21:01;;;;;;;1.23;0.67;;;;;;;6.84;100.00;94515.03;5005104;28;20050;-76
2022/09/28 01:23:47;;;;;;;1.80;0.60;;;;;;;6.96;100.00;94507.59;4999762;28;20450;-76
2022/09/28 01:26:44;;;;;;;2.13;0.90;;;;;;;6.95;100.00;94498.13;5003570;28;21317;-75
2022/09/28 01:29:28;;;;;;;4.53;0.80;;;;;;;7.01;100.00;94486.97;5017980;28;20038;-76
2022/09/28 01:32:16;;;;;;;2.22;0.70;;;;;;;7.02;100.00;94483.34;5003535;28;20037;-75
2022/09/28 01:35:38;;;;;;;2.43;0.50;;;;;;;7.05;100.00;94473.34;5023093;28;20140;-77
2022/09/28 01:38:18;;;;;;;1.03;0.50;;;;;;;7.03;100.00;94466.66;4948816;28;20044;-76
2022/09/28 01:40:47;;;;;;;2.23;0.73;;;;;;;7.06;100.00;94464.50;5009612;28;20048;-76
2022/09/28 01:43:27;;;;;;;1.77;0.70;;;;;;;7.12;100.00;94462.97;5010763;28;20042;-76
2022/09/28 01:46:19;;;;;;;1.83;0.93;;;;;;;7.10;100.00;94457.13;5024961;28;20514;-76
2022/09/28 01:48:56;;;;;;;3.67;1.00;;;;;;;7.13;100.00;94453.34;5021649;28;20025;-75
2022/09/28 01:51:40;;;;;;;2.53;0.90;;;;;;;7.09;100.00;94448.47;5006437;28;20030;-76
2022/09/28 01:54:13;;;;;;;2.97;1.00;;;;;;;7.13;100.00;94440.25;5018688;28;20030;-75
2022/09/28 01:56:48;;;;;;;2.00;1.00;;;;;;;7.14;100.00;94431.41;5019830;28;20112;-76
2022/09/28 01:59:21;;;;;;;3.43;1.20;;;;;;;7.12;100.00;94429.00;5015922;28;20386;-74
2022/09/28 02:01:52;;;;;;;1.75;1.05;;;;;;;7.15;100.00;94435.69;5018009;28;20547;-75
2022/09/28 02:04:41;;;;;;;2.03;0.97;;;;;;;7.18;100.00;94420.44;5019853;28;20038;-76
2022/09/28 02:07:17;;;;;;;2.77;1.10;;;;;;;7.22;100.00;94418.25;5026893;28;20033;-76
2022/09/28 02:09:58;;;;;;;4.60;1.40;;;;;;;7.24;100.00;94405.81;5004004;28;20037;-76
2022/09/28 02:12:43;;;;;;;2.40;1.10;;;;;;;7.27;100.00;94401.00;5044072;28;20030;-76
2022/09/28 02:15:13;;;;;;;5.73;1.23;;;;;;;7.31;100.00;94401.47;5009141;28;20026;-76
2022/09/28 02:17:40;;;;;;;2.20;1.10;;;;;;;7.26;100.00;94391.56;5023581;28;20037;-76
2022/09/28 02:20:06;;;;;;;2.10;1.03;;;;;;;7.28;100.00;94383.53;5006846;28;20036;-76
2022/09/28 02:22:54;;;;;;;3.50;1.27;;;;;;;7.27;100.00;94382.72;5010443;28;20428;-76
2022/09/28 02:25:30;;;;;;;3.13;1.30;;;;;;;7.34;100.00;94377.56;5015085;28;20037;-76
2022/09/28 02:28:03;;;;;;;1.87;1.00;;;;;;;7.37;100.00;94381.59;5004763;28;20125;-76
2022/09/28 02:30:31;;;;;;;2.33;1.00;;;;;;;7.33;100.00;94374.13;5003619;28;20034;-76
2022/09/28 02:33:15;;;;;;;3.27;1.20;;;;;;;7.35;100.00;94367.94;5034739;28;20624;-76
2022/09/28 02:35:42;;;;;;;2.67;1.20;;;;;;;7.39;100.00;94374.41;5002187;28;20585;-76
2022/09/28 02:38:10;;;;;;;2.83;1.13;;;;;;;7.43;100.00;94370.41;5021980;28;20154;-75
2022/09/28 02:40:36;;;;;;;1.83;0.90;;;;;;;7.44;100.00;94367.59;5020991;28;20377;-75
2022/09/28 02:43:28;;;;;;;2.73;0.90;;;;;;;7.42;100.00;94358.34;5004437;28;20038;-75
2022/09/28 02:46:27;;;;;;;3.53;0.93;;;;;;;7.45;100.00;94352.75;4993290;28;20035;-76
2022/09/28 02:49:31;;;;;;;4.03;1.70;;;;;;;7.45;100.00;94347.50;5009135;28;20048;-76
2022/09/28 02:52:24;;;;;;;2.10;0.90;;;;;;;7.47;100.00;94348.13;5014407;28;20617;-77
2022/09/28 02:54:59;;;;;;;2.75;0.80;;;;;;;7.47;100.00;94348.94;5001038;28;20451;-77
2022/09/28 02:57:55;;;;;;;3.53;0.80;;;;;;;7.56;100.00;94342.59;5005543;28;20431;-76
2022/09/28 03:00:22;;;;;;;4.10;0.63;;;;;;;7.64;100.00;94343.44;5027377;28;20061;-75
2022/09/28 03:03:18;;;;;;;3.07;1.00;;;;;;;7.61;100.00;94330.75;5002432;28;20549;-76
2022/09/28 03:05:57;;;;;;;4.30;0.90;;;;;;;7.60;100.00;94319.47;4989560;28;20064;-76
2022/09/28 03:08:34;;;;;;;2.43;1.00;;;;;;;7.64;100.00;94328.56;4991554;28;20084;-76
2022/09/28 03:11:06;;;;;;;3.67;0.93;;;;;;;7.63;100.00;94311.25;4990329;28;20033;-75
2022/09/28 03:13:33;;;;;;;4.73;0.90;;;;;;;7.66;100.00;94305.66;4989966;28;20450;-75
2022/09/28 03:16:11;;;;;;;4.93;1.10;;;;;;;7.69;100.00;94307.09;5001632;28;20042;-75
2022/09/28 03:18:38;;;;;;;2.57;0.73;;;;;;;7.66;100.00;94305.66;5005390;28;20080;-76
2022/09/28 03:21:04;;;;;;;4.57;1.13;;;;;;;7.70;100.00;94296.41;5026496;28;20029;-76
2022/09/28 03:23:30;;;;;;;6.80;1.10;;;;;;;7.72;100.00;94296.25;5012145;28;20054;-76
2022/09/28 03:25:56;;;;;;;3.83;1.23;;;;;;;7.68;100.00;94292.38;5019996;28;20041;-75
2022/09/28 03:28:22;;;;;;;4.17;0.87;;;;;;;7.78;100.00;94300.72;5016231;28;20083;-76
2022/09/28 03:30:49;;;;;;;8.50;1.63;;;;;;;7.77;100.00;94312.16;4993144;28;20041;-76
2022/09/28 03:33:15;;;;;;;4.10;0.87;;;;;;;7.80;100.00;94303.94;5041345;28;20041;-74
2022/09/28 03:35:41;;;;;;;4.77;0.93;;;;;;;7.82;100.00;94301.97;5014912;28;20419;-74
2022/09/28 03:38:06;;;;;;;3.60;0.80;;;;;;;7.83;100.00;94303.56;5006918;28;20816;-75
2022/09/28 03:40:36;;;;;;;8.37;1.10;;;;;;;7.83;100.00;94297.53;5013185;28;20518;-76
2022/09/28 03:43:02;;;;;;;5.33;1.00;;;;;;;7.78;100.00;94301.53;5008520;28;20037;-75
2022/09/28 03:45:28;;;;;;;5.50;0.87;;;;;;;7.80;100.00;94301.34;5023522;28;20121;-74
2022/09/28 03:47:54;;;;;;;1.73;0.70;;;;;;;7.82;100.00;94296.72;5020326;28;20129;-74
2022/09/28 03:50:20;;;;;;;3.33;0.73;;;;;;;7.79;100.00;94292.69;5010141;28;20037;-76
2022/09/28 03:52:47;;;;;;;4.20;0.80;;;;;;;7.78;100.00;94282.41;4997195;28;20042;-76
2022/09/28 03:55:12;;;;;;;2.53;0.70;;;;;;;7.79;100.00;94282.22;5040496;28;20064;-76
2022/09/28 03:57:38;;;;;;;5.30;0.90;;;;;;;7.79;100.00;94276.16;5019597;28;20049;-77
2022/09/28 04:00:05;;;;;;;4.57;1.03;;;;;;;7.79;100.00;94270.94;5021117;28;20033;-76
2022/09/28 04:02:39;;;;;;;2.13;0.73;;;;;;;7.77;100.00;94262.47;5025181;28;20041;-76
2022/09/28 04:05:05;;;;;;;5.63;1.07;;;;;;;7.73;100.00;94269.88;5006819;28;20522;-76
2022/09/28 04:07:31;;;;;;;3.47;1.23;;;;;;;7.77;100.00;94273.72;5008480;28;20117;-76
2022/09/28 04:09:56;;;;;;;5.63;1.83;;;;;;;7.76;100.00;94266.88;5003734;28;20045;-76
2022/09/28 04:12:22;;;;;;;4.37;1.00;;;;;;;7.78;100.00;94262.28;5015081;28;20033;-76
2022/09/28 04:14:48;;;;;;;3.80;0.70;;;;;;;7.84;100.00;94252.84;5004745;28;20044;-76
2022/09/28 04:17:13;;;;;;;2.57;0.90;;;;;;;7.87;100.00;94257.69;5011254;28;20508;-76
2022/09/28 04:19:39;;;;;;;4.20;1.33;;;;;;;7.87;100.00;94256.91;5011839;28;20033;-75
2022/09/28 04:22:23;;;;;;;5.40;0.77;;;;;;;7.91;100.00;94263.34;5006701;28;20044;-75
2022/09/28 04:24:49;;;;;;;5.03;1.10;;;;;;;7.86;100.00;94263.94;4996733;28;21232;-76
2022/09/28 04:30:01;;;;;;;2.77;0.87;;;;;;;7.90;100.00;94261.75;5010561;28;20487;-76
2022/09/28 04:32:28;;;;;;;1.93;0.77;;;;;;;7.85;100.00;94259.72;5010389;28;20025;-75
2022/09/28 04:34:54;;;;;;;2.73;0.60;;;;;;;7.89;100.00;94253.09;5013337;28;20060;-78
2022/09/28 04:37:20;;;;;;;3.70;1.13;;;;;;;7.89;100.00;94255.72;4997843;28;20028;-76
2022/09/28 04:39:45;;;;;;;4.00;1.20;;;;;;;7.89;100.00;94270.59;5008801;28;20434;-76
2022/09/28 04:42:11;;;;;;;5.10;1.00;;;;;;;7.88;100.00;94276.81;5015220;28;20033;-76
2022/09/28 04:44:37;;;;;;;3.77;0.87;;;;;;;7.81;100.00;94276.78;4995844;28;20037;-76
2022/09/28 04:47:07;;;;;;;4.10;1.00;;;;;;;7.80;100.00;94277.78;5014204;28;20403;-75
2022/09/28 04:49:42;;;;;;;2.37;0.80;;;;;;;7.77;100.00;94288.63;5015912;28;20513;-76
2022/09/28 04:52:11;;;;;;;3.80;1.00;;;;;;;7.69;100.00;94276.50;5018664;28;20105;-76
2022/09/28 04:54:36;;;;;;;1.83;0.53;;;;;;;7.72;100.00;94289.19;5018029;28;20080;-77
2022/09/28 04:57:04;;;;;;;3.10;0.90;;;;;;;7.64;100.00;94291.94;5016375;28;20038;-77
2022/09/28 04:59:30;;;;;;;9.43;1.40;;;;;;;7.65;100.00;94304.03;4996001;28;20087;-76
2022/09/28 05:01:56;;;;;;;3.07;1.17;;;;;;;7.64;100.00;94315.47;5000174;28;20565;-76
2022/09/28 05:04:42;;;;;;;2.60;0.90;;;;;;;7.57;100.00;94314.63;4991858;28;20038;-77
2022/09/28 05:07:30;;;;;;;3.23;0.93;;;;;;;7.43;100.00;94321.53;5003846;28;20046;-75
2022/09/28 05:09:59;;;;;;;1.93;0.63;;;;;;;7.43;100.00;94312.88;5009502;28;20493;-76
2022/09/28 05:12:28;;;;;;;3.27;1.07;;;;;;;7.43;100.00;94318.13;5014549;28;20548;-76
2022/09/28 05:14:55;;;;;;;5.50;1.10;;;;;;;7.38;100.00;94323.06;5006779;28;20108;-77
2022/09/28 05:17:21;;;;;;;2.87;0.60;;;;;;;7.42;100.00;94309.47;4992978;28;20116;-75
2022/09/28 05:20:07;;;;;;;4.43;0.77;;;;;;;7.39;100.00;94316.88;5017453;28;20038;-75
2022/09/28 05:22:33;;;;;;;2.07;0.63;;;;;;;7.39;100.00;94322.91;5001536;28;20022;-77
2022/09/28 05:24:59;;;;;;;3.33;0.83;;;;;;;7.38;100.00;94323.06;4988916;28;20531;-77
2022/09/28 05:27:29;;;;;;;4.97;0.70;;;;;;;7.31;100.00;94321.22;5002221;28;20057;-76
2022/09/28 05:30:04;;;;;;;1.57;0.60;;;;;;;7.30;100.00;94331.84;5015493;28;20397;-77
2022/09/28 05:32:53;;;;;;;3.13;0.80;;;;;;;7.27;100.00;94334.84;5016664;28;20044;-76
2022/09/28 05:35:41;;;;;;;5.50;1.43;;;;;;;7.28;100.00;94337.28;5005062;28;20120;-77
2022/09/28 05:38:06;;;;;;;3.80;0.80;;;;;;;7.31;100.00;94331.69;5018606;28;20117;-77
2022/09/28 05:40:32;;;;;;;2.93;0.80;;;;;;;7.17;100.00;94337.75;5017383;28;20443;-77
2022/09/28 05:43:01;;;;;;;0.93;0.60;;;;;;;7.20;100.00;94334.78;5009814;28;20467;-77
2022/09/28 05:45:28;;;;;;;1.63;0.60;;;;;;;7.16;100.00;94344.00;5006384;28;20041;-77
2022/09/28 05:47:54;;;;;;;5.33;0.70;;;;;;;7.16;100.00;94341.38;4997712;28;20406;-76
2022/09/28 05:50:21;;;;;;;2.37;0.70;;;;;;;7.17;100.00;94342.97;5014796;28;20291;-76
2022/09/28 05:53:03;;;;;;;4.27;0.90;;;;;;;7.24;100.00;94337.81;5001195;28;20431;-76
2022/09/28 05:55:29;;;;;;;4.47;0.90;;;;;;;7.20;100.00;94349.66;5007183;28;20077;-76
2022/09/28 05:57:59;;;;;;;2.87;0.70;;;;;;;7.16;100.00;94348.41;5030864;28;20064;-76
2022/09/28 06:00:27;;;;;;;3.27;1.33;;;;;;;7.24;100.00;94346.50;5024012;28;20036;-76
2022/09/28 06:03:08;;;;;;;6.03;1.13;;;;;;;7.22;100.00;94343.25;5017819;28;20030;-76
2022/09/28 06:05:35;;;;;;;1.57;0.70;;;;;;;7.23;100.00;94341.44;5007638;28;20683;-77
2022/09/28 06:08:05;;;;;;;1.27;0.57;;;;;;;7.17;100.00;94344.78;5017218;28;20862;-77
2022/09/28 06:10:33;;;;;;;2.30;0.47;;;;;;;7.13;100.00;94344.34;5000542;28;20474;-77
2022/09/28 06:13:00;;;;;;;1.67;0.50;;;;;;;7.16;100.00;94344.00;5019424;28;20040;-77
2022/09/28 06:15:28;;;;;;;2.83;0.67;;;;;;;7.11;100.00;94338.50;5009457;28;20026;-76
2022/09/28 06:18:08;;;;;;;3.53;0.67;;;;;;;7.14;100.00;94338.13;4997221;28;20029;-76
2022/09/28 06:20:42;;;;;;;3.03;0.60;;;;;;;7.13;100.00;94335.72;5000247;28;20038;-76
2022/09/28 06:23:23;;;;;;;2.40;0.60;;;;;;;7.11;100.00;94335.91;5008791;28;20092;-76
2022/09/28 06:25:49;;;;;;;3.07;0.90;;;;;;;7.08;100.00;94325.81;5047785;28;20037;-76
2022/09/28 06:28:15;;;;;;;1.93;0.57;;;;;;;7.13;100.00;94333.91;5001124;28;20029;-75
2022/09/28 06:30:42;;;;;;;3.20;0.80;;;;;;;7.14;100.00;94340.72;5017819;28;20099;-76
2022/09/28 06:33:13;;;;;;;4.23;1.73;;;;;;;7.17;100.00;94344.78;5017065;28;20116;-76
2022/09/28 06:35:39;;;;;;;6.10;2.13;;;;;;;7.22;100.00;94353.72;4992056;28;20057;-77
2022/09/28 06:38:05;;;;;;;6.60;3.40;;;;;;;7.23;100.00;94359.75;5018285;28;20030;-76
2022/09/28 06:40:32;;;;;;;3.63;1.00;;;;;;;7.22;100.00;94372.00;5020216;28;20568;-77
2022/09/28 06:43:01;;;;;;;1.53;0.70;;;;;;;7.18;100.00;94369.97;4996064;28;20129;-76
2022/09/28 06:45:50;;;;;;;2.53;0.60;;;;;;;7.18;100.00;94369.97;5024465;28;20032;-77
2022/09/28 06:48:43;;;;;;;1.67;0.60;;;;;;;7.12;100.00;94373.31;5024744;28;20118;-75
2022/09/28 06:51:13;;;;;;;1.13;0.60;;;;;;;7.21;100.00;94378.25;4996122;28;20506;-77
2022/09/28 06:53:59;;;;;;;2.47;0.87;;;;;;;7.23;100.00;94376.25;5025673;28;20494;-76
2022/09/28 06:56:43;;;;;;;1.77;0.80;;;;;;;7.31;100.00;94368.28;5016125;28;20104;-77
2022/09/28 06:59:09;;;;;;;1.50;1.00;;;;;;;7.35;100.00;94378.38;5018774;28;20037;-77
2022/09/28 07:01:37;;;;;;;2.73;1.03;;;;;;;7.33;100.00;94381.97;5015728;28;20018;-76
2022/09/28 07:04:15;;;;;;;4.53;0.83;;;;;;;7.36;100.00;94383.41;5018293;28;20430;-77
2022/09/28 07:07:01;;;;;;;4.63;1.00;;;;;;;7.37;100.00;94381.59;5015582;28;20037;-75
2022/09/28 07:09:52;;;;;;;3.83;0.80;;;;;;;7.38;100.00;94394.53;5003207;28;20033;-76
2022/09/28 07:12:26;;;;;;;3.80;1.10;;;;;;;7.37;100.00;94392.06;4999242;28;20060;-76
2022/09/28 07:14:56;;;;;;;2.83;0.90;;;;;;;7.38;100.00;94404.16;5020688;28;20117;-76
2022/09/28 07:17:26;;;;;;;2.70;1.07;;;;;;;7.48;100.00;94409.91;5010023;28;20037;-76
2022/09/28 07:19:56;;;;;;;3.43;1.10;;;;;;;7.44;100.00;94406.03;5021929;28;20030;-74
2022/09/28 07:22:22;;;;;;;3.97;1.37;;;;;;;7.48;100.00;94410.72;4991122;28;20384;-76
2022/09/28 07:24:50;;;;;;;2.60;0.90;;;;;;;7.36;100.00;94417.41;5023388;28;20029;-76
2022/09/28 07:27:38;;;;;;;5.17;1.97;;;;;;;7.45;100.00;94418.13;5023585;28;20072;-77
2022/09/28 07:30:16;;;;;;;2.97;1.10;;;;;;;7.55;100.00;94416.03;5025442;28;20030;-76
2022/09/28 07:33:06;;;;;;;2.40;1.00;;;;;;;7.61;100.00;94423.09;5017269;28;20037;-77
2022/09/28 07:35:56;;;;;;;3.63;1.27;;;;;;;7.56;100.00;94423.69;5015703;28;20037;-76
2022/09/28 07:38:26;;;;;;;;;;;;;;;7.49;100.00;94437.69;5023376;28;20034;-77
2022/09/28 07:41:10;;;;;;;3.80;2.00;;;;;;;7.53;100.00;94449.38;4998918;28;20062;-76
2022/09/28 07:43:40;;;;;;;4.73;2.30;;;;;;;7.59;100.00;94445.25;4999837;28;20084;-77
2022/09/28 07:46:10;;;;;;;4.00;1.60;;;;;;;7.63;100.00;94449.91;5014540;28;20045;-77
2022/09/28 07:48:40;;;;;;;4.77;1.43;;;;;;;7.66;100.00;94457.38;5043616;28;20488;-76
2022/09/28 07:51:22;;;;;;;3.67;1.60;;;;;;;7.73;100.00;94460.06;5012088;28;20136;-77
2022/09/28 07:54:06;;;;;;;5.20;2.30;;;;;;;7.80;100.00;94459.13;5017760;28;20077;-77
2022/09/28 07:57:07;;;;;;;3.70;2.00;;;;;;;7.83;100.00;94472.84;5004428;28;20043;-76
2022/09/28 07:59:40;;;;;;;4.53;2.08;;;;;;;7.79;100.00;94468.00;5011998;28;20068;-76
2022/09/28 08:02:44;;;;;;;5.90;2.17;;;;;;;8.10;100.00;94466.88;5015792;28;20184;-74
2022/09/28 08:05:13;;;;;;;4.40;2.03;;;;;;;8.35;100.00;94456.84;5007430;28;20101;-76
2022/09/28 08:07:38;;;;;;;5.27;1.70;;;;;;;8.69;100.00;94461.38;5009936;28;20526;-76
2022/09/28 08:10:10;;;;;;;6.87;2.07;;;;;;;8.97;100.00;94463.97;5010216;28;20026;-73
2022/09/28 08:13:00;;;;;;;4.00;1.97;;;;;;;9.42;100.00;94459.16;5015302;28;20646;-77
2022/09/28 08:15:49;;;;;;;4.57;1.90;;;;;;;9.39;100.00;94458.75;5015385;28;20077;-76
2022/09/28 08:18:22;;;;;;;4.87;1.57;;;;;;;9.58;100.00;94444.06;5009867;28;20033;-76
2022/09/28 08:23:37;;;;;;;4.03;1.70;;;;;;;9.76;100.00;94441.72;5023060;28;20671;-76
2022/09/28 08:26:03;;;;;;;3.80;1.13;;;;;;;9.88;100.00;94440.13;5022483;28;20034;-76
2022/09/28 08:28:31;;;;;;;4.53;1.37;;;;;;;9.90;100.00;94445.97;5007531;28;20120;-77
2022/09/28 08:31:01;;;;;;;5.00;1.60;;;;;;;9.71;100.00;94451.19;5003459;28;20117;-75
2022/09/28 08:33:27;;;;;;;3.33;1.27;;;;;;;9.58;100.00;94452.75;5022165;28;20056;-78
2022/09/28 08:36:11;;;;;;;7.20;2.00;;;;;;;9.21;100.00;94461.88;4995606;28;20048;-75
2022/09/28 08:38:56;;;;;;;2.63;1.33;;;;;;;9.24;100.00;94463.31;4991798;28;20132;-72
2022/09/28 08:41:31;;;;;;;3.20;1.37;;;;;;;8.97;100.00;94476.25;4991294;28;20414;-75
2022/09/28 08:44:26;;;;;;;5.97;1.73;;;;;;;8.91;100.00;94474.41;4993158;28;20037;-74
2022/09/28 08:50:25;;;;;;;5.67;1.30;;;;;;;8.83;100.00;94485.06;4986577;28;20132;-73
2022/09/28 08:53:40;;;;;;;4.00;1.90;;;;;;;8.80;100.00;94488.84;5010149;28;20140;-75
2022/09/28 08:56:30;;;;;;;4.27;1.67;;;;;;;8.71;100.00;94493.41;4972019;28;20076;-74
2022/09/28 08:59:02;;;;;;;5.80;1.83;;;;;;;8.87;100.00;94500.19;4985730;28;20081;-73
2022/09/28 09:01:37;;;;;;;3.80;1.23;;;;;;;8.95;100.00;94497.44;4985691;28;20045;-73
2022/09/28 09:04:07;;;;;;;6.03;2.00;;;;;;;8.84;100.00;94494.53;4972021;28;20042;-74
2022/09/28 09:07:15;;;;;;;2.42;1.52;;;;;;;8.99;100.00;94500.50;4990656;28;20037;-74
2022/09/28 09:09:54;;;;;;;4.17;1.83;;;;;;;9.30;100.00;94505.31;5006131;28;20042;-73
2022/09/28 09:12:29;;;;;;;4.60;1.50;;;;;;;9.30;100.00;94499.25;5006020;28;20429;-75
2022/09/28 09:15:10;;;;;;;4.30;1.50;;;;;;;9.53;100.00;94501.59;5006116;28;20381;-75
2022/09/28 09:17:42;;;;;;;6.43;2.10;;;;;;;9.97;100.00;94503.78;4985166;28;20048;-75
2022/09/28 09:20:32;;;;;;;7.07;2.20;;;;;;;9.75;100.00;94504.91;5010978;28;20045;-74
2022/09/28 09:23:12;;;;;;;4.73;1.50;;;;;;;10.12;100.00;94511.47;5005388;28;20053;-75
2022/09/28 09:25:49;;;;;;;4.53;1.30;;;;;;;9.96;100.00;94504.78;4996048;28;20042;-75
2022/09/28 09:28:27;;;;;;;8.10;2.67;;;;;;;10.12;100.00;94501.78;5024146;28;20029;-75
2022/09/28 09:31:13;;;;;;;4.83;1.70;;;;;;;9.89;100.00;94499.50;5002099;28;20068;-75
2022/09/28 09:34:15;;;;;;;4.97;2.23;;;;;;;9.93;100.00;94494.66;5054443;28;20073;-75
2022/09/28 09:36:53;;;;;;;5.33;1.90;;;;;;;9.88;100.00;94507.56;5020685;28;20105;-75
2022/09/28 09:40:00;;;;;;;5.17;1.97;;;;;;;9.81;100.00;94510.16;5022791;28;20044;-74
2022/09/28 09:42:53;;;;;;;7.07;2.03;;;;;;;9.78;100.00;94517.63;5021551;28;20176;-75
2022/09/28 09:46:00;;;;;;;5.70;1.73;;;;;;;9.56;100.00;94514.31;5021207;28;20053;-74
2022/09/28 09:49:14;;;;;;;2.53;1.40;;;;;;;9.70;100.00;94523.06;5030009;28;20041;-74
2022/09/28 09:52:05;;;;;;;6.53;1.73;;;;;;;9.64;100.00;94527.28;5024944;28;20552;-74
2022/09/28 09:54:35;;;;;;;4.10;1.90;;;;;;;9.53;100.00;94526.00;5025869;28;20145;-74
2022/09/28 09:57:09;;;;;;;4.93;1.80;;;;;;;9.54;100.00;94530.25;5035433;28;20037;-74
2022/09/28 09:59:46;;;;;;;7.32;2.13;;;;;;;9.57;100.00;94527.25;5030218;28;20398;-75
2022/09/28 10:02:30;;;;;;;5.50;1.77;;;;;;;9.76;100.00;94525.72;5005442;28;20107;-74
2022/09/28 10:05:11;;;;;;;4.33;1.70;;;;;;;10.03;100.00;94533.69;5033684;28;20171;-75
2022/09/28 10:07:58;;;;;;;4.93;1.80;;;;;;;10.21;100.00;94527.88;5016417;28;20060;-74
2022/09/28 10:10:27;;;;;;;5.50;1.80;;;;;;;10.40;100.00;94524.50;4990197;28;20042;-74
2022/09/28 10:12:59;;;;;;;6.73;1.90;;;;;;;10.60;100.00;94532.41;5022518;28;20049;-74
2022/09/28 10:15:29;;;;;;;4.83;1.70;;;;;;;10.54;100.00;94528.78;5011027;28;20133;-73
2022/09/28 10:18:13;;;;;;;4.17;1.57;;;;;;;10.83;100.00;94522.31;5004395;28;20509;-74
2022/09/28 10:21:19;;;;;;;8.00;2.37;;;;;;;10.87;100.00;94530.63;5016690;28;20415;-73
2022/09/28 10:23:57;;;;;;;7.50;1.67;;;;;;;10.58;100.00;94529.97;5023702;28;20425;-74
2022/09/28 10:26:39;;;;;;;5.03;1.30;;;;;;;10.81;100.00;94524.34;5020124;28;20087;-74
2022/09/28 10:29:20;;;;;;;9.43;1.80;;;;;;;10.52;100.00;94517.63;4999112;28;20050;-74
2022/09/28 10:31:51;;;;;;;5.40;1.60;;;;;;;10.71;100.00;94518.66;5019407;28;20061;-74
2022/09/28 10:34:43;;;;;;;12.63;4.50;;;;;;;10.95;100.00;94517.25;5020427;28;20108;-74
2022/09/28 10:37:15;;;;;;;9.30;3.73;;;;;;;11.10;100.00;94511.78;5001044;28;20075;-74
2022/09/28 10:40:42;;;;;;;14.40;6.93;;;;;;;11.07;100.00;94499.03;5029767;28;20063;-74
2022/09/28 10:43:29;;;;;;;6.37;2.23;;;;;;;11.00;100.00;94511.34;5004686;28;20096;-74
2022/09/28 10:46:08;;;;;;;4.10;1.23;;;;;;;11.01;100.00;94507.75;5002607;28;20045;-75
2022/09/28 10:49:01;;;;;;;4.80;1.30;;;;;;;11.23;100.00;94505.66;5013134;28;20034;-74
2022/09/28 10:51:48;;;;;;;4.67;1.40;;;;;;;10.96;100.00;94510.97;5038737;28;20055;-74
2022/09/28 10:54:25;;;;;;;3.77;1.13;;;;;;;11.15;100.00;94522.50;5002715;28;20045;-74
2022/09/28 10:56:53;;;;;;;4.73;1.43;;;;;;;11.08;100.00;94514.59;5026858;28;20037;-75
2022/09/28 10:59:30;;;;;;;5.23;1.10;;;;;;;10.96;100.00;94518.84;5004048;28;20029;-75
2022/09/28 11:02:38;;;;;;;4.93;1.37;;;;;;;11.53;100.00;94513.91;5010210;28;20120;-74
2022/09/28 11:05:20;;;;;;;3.90;1.40;;;;;;;11.76;100.00;94524.75;5029565;28;20030;-76
2022/09/28 11:07:47;;;;;;;3.70;1.43;;;;;;;12.77;100.00;94515.31;5032618;28;20273;-75
2022/09/28 11:10:29;;;;;;;11.57;1.73;;;;;;;12.81;100.00;94500.69;5033011;28;20050;-75
2022/09/28 11:13:00;;;;;;;5.07;2.28;;;;;;;12.37;100.00;94512.13;5043783;28;20065;-75
2022/09/28 11:15:32;;;;;;;9.30;2.90;;;;;;;12.91;100.00;94501.00;5016732;28;20048;-73
2022/09/28 11:18:17;;;;;;;;;;;;;;;12.82;100.00;94512.84;5028637;28;20030;-75
2022/09/28 11:20:42;;;;;;;3.17;1.20;;;;;;;12.25;100.00;94509.38;5033628;28;19921;-73
2022/09/28 11:23:19;;;;;;;10.17;2.93;;;;;;;11.84;100.00;94517.63;5007778;28;20045;-74
2022/09/28 11:25:59;;;;;;;8.10;3.03;;;;;;;11.83;100.00;94519.47;5039276;28;20121;-75
2022/09/28 11:28:31;;;;;;;4.00;1.40;;;;;;;11.75;100.00;94520.50;5011110;28;20164;-74
2022/09/28 11:30:59;;;;;;;4.72;2.08;;;;;;;11.67;100.00;94510.22;5025580;28;20402;-74
2022/09/28 11:33:38;;;;;;;4.47;1.10;;;;;;;11.46;100.00;94516.53;5001971;28;20048;-74
2022/09/28 11:36:54;;;;;;;9.00;2.33;;;;;;;11.51;100.00;94508.06;5009324;28;20036;-74
2022/09/28 11:39:58;;;;;;;4.17;1.70;;;;;;;11.38;100.00;94510.72;5027993;28;20049;-74
2022/09/28 11:43:01;;;;;;;4.70;1.47;;;;;;;11.65;100.00;94512.25;4986340;28;20030;-75
2022/09/28 11:45:36;;;;;;;4.40;1.20;;;;;;;11.60;100.00;94509.41;5012814;28;20502;-75
2022/09/28 11:48:12;;;;;;;4.43;1.23;;;;;;;11.20;100.00;94501.66;5003179;28;20037;-74
2022/09/28 11:51:01;;;;;;;4.93;1.30;;;;;;;11.37;100.00;94499.38;5038619;28;20509;-75
2022/09/28 11:53:35;;;;;;;3.47;1.10;;;;;;;11.23;100.00;94500.41;5008327;28;20132;-73
2022/09/28 11:56:11;;;;;;;2.87;1.17;;;;;;;11.55;100.00;94504.78;5012903;28;20044;-74
2022/09/28 11:58:49;;;;;;;3.63;1.40;;;;;;;12.75;100.00;94488.34;5006380;28;20093;-74
2022/09/28 12:01:30;;;;;;;6.03;1.40;;;;;;;12.85;100.00;94495.78;5044490;28;20052;-74
2022/09/28 12:04:35;;;;;;;3.30;1.30;;;;;;;12.49;100.00;94490.16;5010689;28;20045;-74
2022/09/28 12:07:11;;;;;;;6.07;1.40;;;;;;;12.39;100.00;94496.91;5009047;28;20037;-74
2022/09/28 12:09:42;;;;;;;4.60;1.17;;;;;;;12.00;100.00;94485.59;5019899;28;20044;-74
2022/09/28 12:12:24;;;;;;;5.03;1.50;;;;;;;12.79;100.00;94478.97;5022784;28;20022;-74
2022/09/28 12:14:55;;;;;;;10.33;3.17;;;;;;;12.81;100.00;94482.22;5009955;28;20118;-74
2022/09/28 12:17:33;;;;;;;5.83;1.50;;;;;;;12.52;100.00;94488.13;5017331;28;20030;-74
2022/09/28 12:20:08;;;;;;;3.13;1.10;;;;;;;12.41;100.00;94489.63;5002140;28;20246;-74
2022/09/28 12:22:44;;;;;;;3.60;1.50;;;;;;;12.13;100.00;94496.03;5020934;28;20050;-74